METAR Data
IDs: Format: Raw Decoded Include TAF

Data at: 0523 UTC 20 Oct 2018

PAWD 200453Z AUTO 35012KT 10SM SCT044 OVC075 08/03 A2912 RMK AO2 SLP861 T00830033 TSNO $
PAWD 200353Z AUTO 01012KT 10SM FEW035 BKN050 OVC070 08/04 A2907 RMK AO2 RAE09 SLP842 P0000 T00780039 TSNO $
PAWD 200253Z AUTO 02009G18KT 10SM -RA OVC039 08/04 A2901 RMK AO2 PK WND 32026/0156 RAB47 SLP825 P0000 60001 T00780039 53043 TSNO $
PAWD 200153Z AUTO 34013G24KT 10SM SCT029 BKN037 OVC080 08/03 A2896 RMK AO2 PK WND 36028/0128 SLP808 T00830033 TSNO $
PAWD 200053Z AUTO 33019G26KT 10SM BKN033 BKN040 OVC080 08/03 A2892 RMK AO2 PK WND 34036/0038 RAE38 SLP793 P0001 T00830028 TSNO $
PAWD 192353Z AUTO 36021G35KT 330V030 10SM -RA BKN037 OVC055 08/03 A2889 RMK AO2 PK WND 36035/2352 RAB52 SLP782 P0000 60006 T00780033 10083 20061 53021 TSNO $
PAWD 192253Z AUTO 03015G21KT 10SM SCT037 BKN050 OVC110 08/04 A2885 RMK AO2 PK WND 01030/2233 SLP771 T00780044 TSNO $
PAWD 192153Z AUTO 03017G25KT 10SM FEW028 BKN045 OVC110 07/04 A2884 RMK AO2 PK WND 02027/2105 RAE38 SLP766 P0000 T00670044 TSNO $
PAWD 192053Z AUTO 02019G30KT 10SM -RA FEW025 BKN035 OVC047 07/04 A2883 RMK AO2 PK WND 04030/2048 SLP761 P0000 60006 T00670044 55003 TSNO $
PAWD 192029Z AUTO 03017G26KT 10SM -RA BKN027 BKN036 OVC045 07/04 A2882 RMK AO2 PK WND 03028/2001 P0000 T00670044 TSNO $
PAWD 192022Z AUTO 02015G28KT 10SM -RA FEW019 BKN033 OVC045 07/04 A2882 RMK AO2 PK WND 03028/2001 P0000 T00670044 TSNO $
PAWD 192014Z AUTO 03020G26KT 10SM -RA FEW022 BKN028 OVC043 07/04 A2882 RMK AO2 PK WND 03028/2001 P0000 T00670039 TSNO $
PAWD 191953Z AUTO 01018G29KT 10SM -RA BKN022 BKN028 OVC035 07/04 A2882 RMK AO2 PK WND 03033/1909 SLP758 P0002 T00670039 TSNO $
PAWD 191938Z AUTO 02020G30KT 10SM -RA BKN022 OVC029 06/04 A2882 RMK AO2 PK WND 03033/1909 P0002 T00610044 TSNO $
PAWD 191911Z AUTO 04025G33KT 10SM -RA BKN027 OVC035 06/04 A2883 RMK AO2 PK WND 03033/1909 P0001 T00610044 TSNO $
PAWD 191853Z AUTO 36014G25KT 9SM -RA SCT026 OVC031 06/04 A2883 RMK AO2 PK WND 04032/1801 SLP764 P0004 T00610044 TSNO $
PAWD 191828Z AUTO 02016G27KT 6SM RA BR SCT023 OVC030 07/04 A2884 RMK AO2 PK WND 04032/1801 P0002 T00670044 TSNO $
PAWD 191807Z AUTO 03016G32KT 10SM -RA BKN025 OVC032 07/04 A2885 RMK AO2 PK WND 04032/1801 P0000 T00720039 TSNO $
PAWD 191800Z AUTO 03019G26KT 10SM -RA FEW022 OVC030 07/04 A2884 RMK AO2 PK WND 04026/1800 P0000 T00670044 TSNO $
PAWD 191753Z AUTO 36017G29KT 10SM -RA FEW022 BKN029 OVC035 07/04 A2884 RMK AO2 PK WND 01035/1721 RAE18B24 PRESFR SLP765 P0001 60005 T00720039 10089 20067 56034 TSNO $
PAWD 191748Z AUTO 02015G29KT 10SM -RA FEW022 BKN029 OVC035 07/04 A2884 RMK AO2 PK WND 01035/1721 RAE18B24 P0001 TSNO $
PAWD 191718Z AUTO 03021G30KT 10SM SCT026 OVC033 07/04 A2887 RMK AO2 PK WND 03030/1718 RAE18 P0001 T00720044 TSNO $
PAWD 191702Z AUTO 02015G24KT 10SM -RA BKN028 OVC032 07/05 A2889 RMK AO2 P0001 T00720050 TSNO $
PAWD 191653Z AUTO 02015G28KT 10SM -RA BKN026 OVC032 07/05 A2890 RMK AO2 PK WND 03029/1627 SLP786 P0003 T00720050 TSNO
PAWD 191646Z AUTO 02015G28KT 10SM -RA BKN028 OVC034 07/05 A2890 RMK AO2 PK WND 03029/1627 P0003 T00720050 TSNO
PAWD 191553Z AUTO 01017G29KT 10SM -RA SCT034 OVC046 08/04 A2894 RMK AO2 PK WND 02033/1456 RAE06B25 PRESFR SLP799 P0000 T00830044 TSNO $
PAWD 191453Z AUTO 02018G27KT 10SM -RA SCT048 OVC080 07/05 A2901 RMK AO2 PK WND 02028/1437 RAB1354 PRESFR SLP822 P0001 60001 T00720050 56102 TSNO $
PAWD 191353Z AUTO 01020G27KT 10SM OVC065 09/04 A2911 RMK AO2 PK WND 03029/1328 SLP858 T00890039 TSNO
PAWD 191253Z AUTO 03011G20KT 10SM SCT041 OVC060 07/05 A2920 RMK AO2 RAB1154E33 PRESFR SLP887 P0000 T00720050 TSNO $
PAWD 191153Z AUTO 01012KT 10SM OVC055 08/04 A2931 RMK AO2 RAE02 PRESFR SLP925 P0000 60000 70040 T00780044 10100 20078 58068 TSNO $
PAWD 191053Z AUTO 35018G26KT 10SM -RA SCT047 BKN070 09/04 A2938 RMK AO2 PK WND 36026/1046 RAB51 PRESFR SLP948 P0000 T00890039 TSNO $
PAWD 190953Z AUTO 35015KT 10SM OVC065 09/04 A2945 RMK AO2 PRESFR SLP971 T00890039 TSNO $
PAWD 190853Z AUTO 35015KT 10SM OVC075 08/04 A2951 RMK AO2 SLP993 60000 T00830039 401110061 58048 TSNO $
PAWD 190753Z AUTO 34015G22KT 10SM BKN060 OVC080 08/03 A2957 RMK AO2 SLP012 T00830033 TSNO $
PAWD 190653Z AUTO 35008KT 10SM BKN060 OVC080 10/04 A2961 RMK AO2 RAB16E25 SLP027 P0000 T01000044 TSNO $
PAWD 190553Z AUTO 35009G18KT 10SM BKN060 OVC070 08/05 A2965 RMK AO2 RAE40 SLP041 P0000 60001 T00830050 10106 20078 56040 TSNO $
PAWD 190453Z AUTO 35010KT 10SM -RA OVC046 08/06 A2969 RMK AO2 SLP055 P0001 T00830061 TSNO $
PAWD 190353Z AUTO 36007KT 10SM -RA OVC060 09/06 A2973 RMK AO2 RAB40 SLP066 P0000 T00940061 TSNO $
PAWD 190253Z AUTO 33005KT 10SM BKN060 OVC080 10/07 A2977 RMK AO2 SLP081 60000 T01000067 58035 TSNO $
PAWD 190153Z AUTO 03003KT 10SM BKN060 09/07 A2981 RMK AO2 SLP094 T00940072 TSNO $
PAWD 190053Z AUTO 32003KT 10SM BKN046 BKN055 10/07 A2984 RMK AO2 RAB41E52 SLP105 P0000 T01000072 TSNO $
PAWD 182353Z AUTO 33003KT 10SM SCT038 BKN055 10/08 A2987 RMK AO2 RAB2259E49 SLP116 P0000 60012 T01000078 10111 20067 58016 TSNO $
PAWD 182253Z AUTO 28003KT 10SM FEW043 BKN055 OVC090 08/08 A2991 RMK AO2 RAE41 SLP127 P0004 T00780078 TSNO $
PAWD 182153Z AUTO 13004KT 5SM -RA BR FEW030 OVC035 08/07 A2992 RMK RAB2057 SLP133 P0006 T00830072 TSNO $ VIA AUTODIAL
PAWD 182053Z AUTO 00000KT 10SM BKN041 OVC050 11/08 A2992 RMK AO2 RAE45 SLP132 P0001 60002 T01110078 50005 TSNO $
PAWD 181953Z AUTO 00000KT 10SM -RA OVC035 08/07 A2992 RMK RAB10 SLP133 P0001 T00830072 TSNO $ VIA AUTODIAL
PAWD 181853Z AUTO 00000KT 10SM OVC033 09/07 A2992 RMK AO2 SLP132 T00890067 TSNO $
PAWD 181753Z AUTO 00000KT 10SM FEW024 OVC041 08/07 A2990 RMK AO2 RAE47 SLP126 P0002 60027 T00830067 10089 20061 53009 TSNO $